createdAt,value
2023-04-15T00:00:22.922Z,100866.12
2023-04-15T00:03:30.460Z,100870.56
2023-04-15T00:06:38.386Z,100869.55
2023-04-15T00:09:44.341Z,100865.83
2023-04-15T00:12:51.066Z,100872.80
2023-04-15T00:15:57.808Z,100881.53
2023-04-15T00:19:04.829Z,100885.23
2023-04-15T00:22:11.365Z,100888.51
2023-04-15T00:25:18.380Z,100879.64
2023-04-15T00:28:24.893Z,100883.30
2023-04-15T00:31:30.796Z,100891.05
2023-04-15T00:34:36.174Z,100887.89
2023-04-15T00:37:45.942Z,100886.83
2023-04-15T00:40:51.581Z,100892.56
2023-04-15T00:43:57.719Z,100889.98
2023-04-15T00:47:04.944Z,100899.17
2023-04-15T00:50:11.424Z,100900.45
2023-04-15T00:53:18.229Z,100902.30
2023-04-15T00:56:24.738Z,100901.46
2023-04-15T00:59:31.050Z,100906.13
2023-04-15T01:02:37.850Z,100903.03
2023-04-15T01:05:43.619Z,100907.75
2023-04-15T01:08:50.408Z,100908.56
2023-04-15T01:11:56.630Z,100915.86
2023-04-15T01:15:04.821Z,100905.60
2023-04-15T01:18:12.932Z,100910.33
2023-04-15T01:21:20.151Z,100915.14
2023-04-15T01:24:26.510Z,100914.64
2023-04-15T01:27:33.592Z,100914.50
2023-04-15T01:30:39.582Z,100914.79
2023-04-15T01:33:47.392Z,100916.78
2023-04-15T01:36:54.242Z,100921.51
2023-04-15T01:40:00.324Z,100912.84
2023-04-15T01:43:08.380Z,100909.19
2023-04-15T01:46:14.434Z,100915.50
2023-04-15T01:49:21.224Z,100920.22
2023-04-15T01:52:27.065Z,100916.91
2023-04-15T01:55:32.736Z,100918.91
2023-04-15T01:58:39.022Z,100920.41
2023-04-15T02:01:46.454Z,100926.52
2023-04-15T02:04:51.985Z,100926.50
2023-04-15T02:08:00.590Z,100928.64
2023-04-15T02:11:09.436Z,100916.88
2023-04-15T02:14:16.537Z,100925.39
2023-04-15T02:17:22.990Z,100925.91
2023-04-15T02:20:30.396Z,100924.77
2023-04-15T02:23:36.731Z,100922.42
2023-04-15T02:26:45.350Z,100923.78
2023-04-15T02:29:53.785Z,100922.18
2023-04-15T02:33:00.516Z,100922.12
2023-04-15T02:36:08.646Z,100926.83
2023-04-15T02:39:16.925Z,100936.00
2023-04-15T02:42:22.898Z,100943.72
2023-04-15T02:45:33.109Z,100941.84
2023-04-15T02:48:40.007Z,100944.94
2023-04-15T02:51:46.118Z,100939.50
2023-04-15T02:54:52.394Z,100949.16
2023-04-15T02:57:58.534Z,100939.98
2023-04-15T03:01:04.986Z,100939.64
2023-04-15T03:04:10.329Z,100945.08
2023-04-15T03:07:17.791Z,100956.11
2023-04-15T03:10:25.317Z,100956.94
2023-04-15T03:13:31.628Z,100959.66
2023-04-15T03:16:40.628Z,100952.52
2023-04-15T03:19:49.080Z,100959.17
2023-04-15T03:22:55.252Z,100958.69
2023-04-15T03:26:06.537Z,100958.69
2023-04-15T03:29:12.205Z,100961.76
2023-04-15T03:32:22.105Z,100959.17
2023-04-15T03:35:28.708Z,100964.83
2023-04-15T03:38:36.873Z,100971.28
2023-04-15T03:41:42.964Z,100961.27
2023-04-15T03:44:50.800Z,100956.66
2023-04-15T03:48:07.295Z,100965.49
2023-04-15T03:51:07.701Z,100974.14
2023-04-15T03:54:15.330Z,100972.30
2023-04-15T03:57:22.042Z,100973.87
2023-04-15T04:00:28.791Z,100984.47
2023-04-15T04:03:36.226Z,100985.06
2023-04-15T04:06:42.437Z,100997.80
2023-04-15T04:09:49.211Z,101000.91
2023-04-15T04:12:57.224Z,101008.94
2023-04-15T04:16:03.682Z,101011.48
2023-04-15T04:19:10.834Z,101004.04
2023-04-15T04:22:17.651Z,101011.09
2023-04-15T04:25:25.284Z,101013.12
2023-04-15T04:28:31.568Z,101016.99
2023-04-15T04:31:36.878Z,101015.45
2023-04-15T04:34:44.178Z,101017.97
2023-04-15T04:37:50.276Z,101024.15
2023-04-15T04:40:56.044Z,101037.27
2023-04-15T04:44:02.545Z,101035.94
2023-04-15T04:47:07.951Z,101040.65
2023-04-15T04:50:13.592Z,101038.30
2023-04-15T04:53:19.837Z,101036.44
2023-04-15T04:56:27.705Z,101042.89
2023-04-15T04:59:34.269Z,101044.94
2023-04-15T05:02:39.859Z,101051.91
2023-04-15T05:05:48.672Z,101056.99
2023-04-15T05:08:57.653Z,101053.25
2023-04-15T05:12:03.473Z,101058.66
2023-04-15T05:15:10.275Z,101060.52
2023-04-15T05:18:15.662Z,101054.63
2023-04-15T05:21:23.028Z,101060.75
2023-04-15T05:24:29.915Z,101052.62
2023-04-15T05:27:36.851Z,101056.58
2023-04-15T05:30:42.480Z,101060.23
2023-04-15T05:33:48.041Z,101059.56
2023-04-15T05:36:54.322Z,101060.11
2023-04-15T05:40:00.424Z,101063.13
2023-04-15T05:43:06.484Z,101056.81
2023-04-15T05:46:12.532Z,101063.48
2023-04-15T05:49:18.728Z,101076.53
2023-04-15T05:52:26.041Z,101064.74
2023-04-15T05:55:32.121Z,101080.33
2023-04-15T05:58:40.296Z,101073.29
2023-04-15T06:01:51.361Z,101083.04
2023-04-15T06:05:00.368Z,101074.20
2023-04-15T06:08:07.536Z,101072.48
2023-04-15T06:11:14.738Z,101082.19
2023-04-15T06:14:22.869Z,101079.88
2023-04-15T06:17:29.486Z,101087.86
2023-04-15T06:20:35.956Z,101084.87
2023-04-15T06:23:44.529Z,101084.58
2023-04-15T06:26:51.319Z,101086.81
2023-04-15T06:29:58.446Z,101090.56
2023-04-15T06:33:05.533Z,101089.89
2023-04-15T06:36:11.678Z,101092.77
2023-04-15T06:39:17.852Z,101095.88
2023-04-15T06:42:24.321Z,101095.92
2023-04-15T06:45:32.408Z,101103.34
2023-04-15T06:48:37.579Z,101110.96
2023-04-15T06:51:42.419Z,101116.96
2023-04-15T06:54:51.852Z,101119.11
2023-04-15T06:57:58.240Z,101125.85
2023-04-15T07:01:04.518Z,101119.45
2023-04-15T07:04:10.933Z,101125.06
2023-04-15T07:07:11.223Z,101125.41
2023-04-15T07:09:58.365Z,101129.23
2023-04-15T07:12:51.815Z,101131.64
2023-04-15T07:15:46.206Z,101137.90
2023-04-15T07:18:53.041Z,101137.81
2023-04-15T07:21:59.575Z,101146.88
2023-04-15T07:25:05.168Z,101148.73
2023-04-15T07:28:10.228Z,101138.23
2023-04-15T07:31:19.615Z,101150.76
2023-04-15T07:34:28.645Z,101153.78
2023-04-15T07:37:36.895Z,101155.22
2023-04-15T07:40:42.031Z,101141.27
2023-04-15T07:43:48.730Z,101154.05
2023-04-15T07:46:56.930Z,101151.77
2023-04-15T07:50:04.911Z,101157.59
2023-04-15T07:53:10.880Z,101159.79
2023-04-15T07:56:17.117Z,101160.95
2023-04-15T07:59:24.357Z,101166.77
2023-04-15T08:02:32.069Z,101162.60
2023-04-15T08:05:38.243Z,101176.39
2023-04-15T08:08:44.807Z,101177.45
2023-04-15T08:11:51.637Z,101167.64
2023-04-15T08:14:58.619Z,101177.78
2023-04-15T08:18:08.489Z,101170.86
2023-04-15T08:21:14.993Z,101169.92
2023-04-15T08:24:21.168Z,101165.20
2023-04-15T08:27:28.799Z,101167.95
2023-04-15T08:30:34.700Z,101164.50
2023-04-15T08:33:39.968Z,101162.00
2023-04-15T08:36:47.245Z,101171.95
2023-04-15T08:39:53.828Z,101171.59
2023-04-15T08:43:01.541Z,101161.96
2023-04-15T08:46:08.999Z,101167.25
2023-04-15T08:49:20.193Z,101161.41
2023-04-15T08:52:26.482Z,101162.56
2023-04-15T08:55:32.964Z,101160.79
2023-04-15T08:58:39.333Z,101168.30
2023-04-15T09:01:45.036Z,101164.39
2023-04-15T09:04:52.578Z,101169.75
2023-04-15T09:07:59.563Z,101180.99
2023-04-15T09:11:05.909Z,101169.68
2023-04-15T09:14:13.619Z,101179.74
2023-04-15T09:17:20.755Z,101177.61
2023-04-15T09:20:28.273Z,101185.52
2023-04-15T09:23:34.567Z,101194.97
2023-04-15T09:26:51.163Z,101203.39
2023-04-15T09:29:56.989Z,101207.04
2023-04-15T09:33:20.206Z,101201.38
2023-04-15T09:36:28.232Z,101193.28
2023-04-15T09:39:34.665Z,101212.25
2023-04-15T09:42:41.432Z,101207.23
2023-04-15T09:45:47.440Z,101207.16
2023-04-15T09:48:55.233Z,101182.89
2023-04-15T09:52:05.660Z,101198.69
2023-04-15T09:55:13.423Z,101200.39
2023-04-15T09:58:19.684Z,101213.16
2023-04-15T10:01:25.137Z,101219.42
2023-04-15T10:04:31.335Z,101213.41
2023-04-15T10:07:36.294Z,101212.44
2023-04-15T10:10:41.368Z,101217.37
2023-04-15T10:13:48.523Z,101216.98
2023-04-15T10:16:56.513Z,101213.98
2023-04-15T10:20:04.173Z,101217.48
2023-04-15T10:23:12.845Z,101224.43
2023-04-15T10:26:21.448Z,101225.53
2023-04-15T10:29:27.821Z,101228.11
2023-04-15T10:32:35.021Z,101228.65
2023-04-15T10:35:41.174Z,101236.81
2023-04-15T10:38:58.292Z,101243.80
2023-04-15T10:42:18.548Z,101251.40
2023-04-15T10:45:28.378Z,101237.37
2023-04-15T10:48:35.386Z,101247.91
2023-04-15T10:51:48.390Z,101255.27
2023-04-15T10:54:54.758Z,101240.14
2023-04-15T10:58:02.428Z,101243.67
2023-04-15T11:01:10.576Z,101245.03
2023-04-15T11:04:16.666Z,101244.59
2023-04-15T11:07:25.665Z,101238.54
2023-04-15T11:10:49.737Z,101239.45
2023-04-15T11:14:03.841Z,101234.60
2023-04-15T11:17:10.462Z,101237.09
2023-04-15T11:20:16.741Z,101237.09
2023-04-15T11:23:24.357Z,101233.58
2023-04-15T11:26:30.655Z,101240.23
2023-04-15T11:29:35.660Z,101237.19
2023-04-15T11:32:42.162Z,101234.05
2023-04-15T11:35:48.320Z,101244.18
2023-04-15T11:38:59.598Z,101237.31
2023-04-15T11:42:05.818Z,101230.41
2023-04-15T11:45:31.180Z,101223.07
2023-04-15T11:48:40.829Z,101226.05
2023-04-15T11:51:48.931Z,101236.87
2023-04-15T11:54:56.663Z,101224.80
2023-04-15T11:58:01.971Z,101242.70
2023-04-15T12:01:14.103Z,101229.23
2023-04-15T12:04:32.397Z,101231.13
2023-04-15T12:07:38.890Z,101242.08
2023-04-15T12:10:47.037Z,101238.53
2023-04-15T12:13:53.628Z,101234.64
2023-04-15T12:17:04.272Z,101232.28
2023-04-15T12:20:11.237Z,101231.00
2023-04-15T12:23:22.806Z,101236.76
2023-04-15T12:26:28.547Z,101239.09
2023-04-15T12:29:34.271Z,101224.69
2023-04-15T12:32:42.202Z,101223.07
2023-04-15T12:35:48.164Z,101224.09
2023-04-15T12:38:54.409Z,101225.16
2023-04-15T12:41:59.628Z,101220.48
2023-04-15T12:45:05.316Z,101222.17
2023-04-15T12:48:10.576Z,101215.48
2023-04-15T12:51:15.446Z,101216.97
2023-04-15T12:54:21.202Z,101219.86
2023-04-15T12:57:27.646Z,101220.55
2023-04-15T13:00:32.940Z,101224.50
2023-04-15T13:03:40.473Z,101213.70
2023-04-15T13:06:46.436Z,101207.09
2023-04-15T13:09:54.731Z,101218.94
2023-04-15T13:13:02.077Z,101214.18
2023-04-15T13:16:09.501Z,101216.08
2023-04-15T13:19:15.358Z,101213.90
2023-04-15T13:22:24.774Z,101209.30
2023-04-15T13:25:31.263Z,101199.40
2023-04-15T13:28:37.996Z,101207.33
2023-04-15T13:31:43.042Z,101203.22
2023-04-15T13:34:49.852Z,101207.23
2023-04-15T13:37:55.527Z,101199.97
2023-04-15T13:41:03.576Z,101190.75
2023-04-15T13:44:09.318Z,101194.42
2023-04-15T13:47:14.947Z,101186.05
2023-04-15T13:50:23.050Z,101192.20
2023-04-15T13:53:38.415Z,101193.25
2023-04-15T13:56:35.958Z,101200.39
2023-04-15T13:59:41.690Z,101183.23
2023-04-15T14:02:47.107Z,101196.52
2023-04-15T14:05:53.421Z,101202.47
2023-04-15T14:08:58.924Z,101194.57
2023-04-15T14:12:06.813Z,101192.09
2023-04-15T14:15:13.368Z,101194.65
2023-04-15T14:18:19.852Z,101201.95
2023-04-15T14:21:27.632Z,101193.84
2023-04-15T14:24:36.105Z,101197.97
2023-04-15T14:27:41.760Z,101191.41
2023-04-15T14:30:48.048Z,101207.42
2023-04-15T14:33:53.014Z,101195.42
2023-04-15T14:37:00.895Z,101215.23
2023-04-15T14:40:07.576Z,101202.98
2023-04-15T14:43:12.832Z,101202.70
2023-04-15T14:46:18.835Z,101203.76
2023-04-15T14:49:25.860Z,101199.87
2023-04-15T14:52:32.876Z,101199.09
2023-04-15T14:55:39.127Z,101201.11
2023-04-15T14:58:47.248Z,101201.11
2023-04-15T15:01:53.798Z,101202.54
2023-04-15T15:05:00.476Z,101210.78
2023-04-15T15:08:09.704Z,101227.58
2023-04-15T15:11:18.304Z,101226.15
2023-04-15T15:14:25.780Z,101229.45
2023-04-15T15:17:30.737Z,101228.70
2023-04-15T15:20:37.015Z,101222.48
2023-04-15T15:23:41.947Z,101217.66
2023-04-15T15:26:48.295Z,101226.98
2023-04-15T15:29:55.024Z,101220.16
2023-04-15T15:33:02.735Z,101240.45
2023-04-15T15:36:09.402Z,101227.47
2023-04-15T15:39:14.917Z,101238.59
2023-04-15T15:42:22.670Z,101238.52
2023-04-15T15:45:30.210Z,101237.31
2023-04-15T15:48:37.923Z,101242.12
2023-04-15T15:51:43.599Z,101254.44
2023-04-15T15:54:49.998Z,101256.02
2023-04-15T15:57:57.506Z,101254.34
2023-04-15T16:01:04.058Z,101259.98
2023-04-15T16:04:10.277Z,101259.11
2023-04-15T16:07:16.837Z,101259.11
2023-04-15T16:10:24.397Z,101260.92
2023-04-15T16:13:30.838Z,101270.35
2023-04-15T16:16:38.445Z,101268.94
2023-04-15T16:19:58.181Z,101267.91
2023-04-15T16:22:53.098Z,101263.47
2023-04-15T16:26:00.613Z,101271.67
2023-04-15T16:29:07.406Z,101270.59
2023-04-15T16:32:13.747Z,101281.00
2023-04-15T16:35:23.135Z,101276.41
2023-04-15T16:38:29.729Z,101280.66
2023-04-15T16:41:36.217Z,101269.72
2023-04-15T16:44:41.312Z,101283.73
2023-04-15T16:47:46.644Z,101288.20
2023-04-15T16:50:52.163Z,101291.58
2023-04-15T16:53:59.388Z,101303.30
2023-04-15T16:57:06.051Z,101291.37
2023-04-15T17:00:11.112Z,101281.97
2023-04-15T17:03:17.657Z,101270.16
2023-04-15T17:06:24.919Z,101277.98
2023-04-15T17:09:32.124Z,101291.64
2023-04-15T17:12:40.096Z,101304.31
2023-04-15T17:15:48.354Z,101309.63
2023-04-15T17:18:55.634Z,101306.27
2023-04-15T17:22:01.474Z,101303.00
2023-04-15T17:25:08.049Z,101306.45
2023-04-15T17:28:14.290Z,101320.76
2023-04-15T17:31:19.601Z,101332.70
2023-04-15T17:34:25.044Z,101345.14
2023-04-15T17:37:34.486Z,101337.97
2023-04-15T17:40:40.095Z,101341.92
2023-04-15T17:43:45.887Z,101352.12
2023-04-15T17:46:51.486Z,101353.77
2023-04-15T17:49:58.332Z,101363.91
2023-04-15T17:53:08.983Z,101355.34
2023-04-15T17:56:15.438Z,101362.80
2023-04-15T17:59:23.251Z,101371.38
2023-04-15T18:02:30.665Z,101368.01
2023-04-15T18:05:37.815Z,101368.70
2023-04-15T18:08:44.118Z,101375.92
2023-04-15T18:11:52.358Z,101387.48
2023-04-15T18:14:58.403Z,101381.58
2023-04-15T18:18:04.270Z,101395.56
2023-04-15T18:21:11.595Z,101398.72
2023-04-15T18:24:19.228Z,101404.19
2023-04-15T18:27:25.895Z,101391.20
2023-04-15T18:30:31.247Z,101375.59
2023-04-15T18:33:36.177Z,101377.16
2023-04-15T18:36:41.329Z,101372.08
2023-04-15T18:39:47.378Z,101362.23
2023-04-15T18:42:53.989Z,101362.87
2023-04-15T18:46:01.773Z,101363.51
2023-04-15T18:49:08.076Z,101381.40
2023-04-15T18:52:15.390Z,101378.81
2023-04-15T18:55:21.507Z,101373.14
2023-04-15T18:58:26.927Z,101379.09
2023-04-15T19:01:33.164Z,101367.09
2023-04-15T19:04:39.658Z,101372.55
2023-04-15T19:07:46.343Z,101366.74
2023-04-15T19:10:53.744Z,101369.23
2023-04-15T19:14:01.952Z,101363.77
2023-04-15T19:17:06.602Z,101356.17
2023-04-15T19:20:12.882Z,101360.77
2023-04-15T19:23:18.479Z,101356.17
2023-04-15T19:26:24.165Z,101342.52
2023-04-15T19:29:30.652Z,101348.61
2023-04-15T19:32:30.063Z,101349.63
2023-04-15T19:35:18.099Z,101324.33
2023-04-15T19:38:12.785Z,101322.63
2023-04-15T19:41:18.518Z,101327.63
2023-04-15T19:44:24.427Z,101311.89
2023-04-15T19:47:30.928Z,101326.03
2023-04-15T19:50:39.034Z,101340.20
2023-04-15T19:53:45.173Z,101348.29
2023-04-15T19:56:50.550Z,101344.72
2023-04-15T19:59:57.549Z,101349.45
2023-04-15T20:03:04.395Z,101345.98
2023-04-15T20:06:11.856Z,101344.41
2023-04-15T20:09:18.354Z,101366.14
2023-04-15T20:12:51.476Z,101359.70
2023-04-15T20:15:37.744Z,101361.42
2023-04-15T20:18:44.906Z,101380.88
2023-04-15T20:21:52.812Z,101375.27
2023-04-15T20:24:58.941Z,101373.20
2023-04-15T20:28:05.783Z,101376.08
2023-04-15T20:31:13.519Z,101377.44
2023-04-15T20:34:20.832Z,101385.24
2023-04-15T20:37:27.341Z,101383.04
2023-04-15T20:40:35.141Z,101375.34
2023-04-15T20:43:42.243Z,101380.31
2023-04-15T20:46:48.725Z,101378.07
2023-04-15T20:49:58.379Z,101378.07
2023-04-15T20:53:03.469Z,101380.17
2023-04-15T20:56:10.399Z,101379.08
2023-04-15T20:59:15.969Z,101363.55
2023-04-15T21:02:22.098Z,101369.88
2023-04-15T21:05:29.853Z,101369.74
2023-04-15T21:08:36.605Z,101376.70
2023-04-15T21:11:53.194Z,101371.29
2023-04-15T21:14:44.433Z,101370.45
2023-04-15T21:17:49.550Z,101378.25
2023-04-15T21:20:55.734Z,101377.69
2023-04-15T21:24:05.015Z,101379.54
2023-04-15T21:27:11.207Z,101386.25
2023-04-15T21:30:16.802Z,101393.73
2023-04-15T21:33:22.684Z,101394.58
2023-04-15T21:36:29.331Z,101402.27
2023-04-15T21:39:35.089Z,101405.91
2023-04-15T21:42:42.105Z,101414.36
2023-04-15T21:46:21.461Z,101410.90
2023-04-15T21:48:57.539Z,101410.06
2023-04-15T21:52:04.447Z,101411.03
2023-04-15T21:55:10.608Z,101425.55
2023-04-15T21:58:16.522Z,101421.45
2023-04-15T22:01:23.881Z,101420.69
2023-04-15T22:04:30.113Z,101428.38
2023-04-15T22:07:38.076Z,101426.42
2023-04-15T22:10:46.481Z,101423.83
2023-04-15T22:13:51.518Z,101426.20
2023-04-15T22:16:59.239Z,101426.34
2023-04-15T22:20:05.236Z,101419.00
2023-04-15T22:23:12.758Z,101417.77
2023-04-15T22:26:18.856Z,101420.22
2023-04-15T22:29:23.887Z,101424.09
2023-04-15T22:32:30.351Z,101422.00
2023-04-15T22:35:35.900Z,101417.06
2023-04-15T22:38:42.263Z,101414.58
2023-04-15T22:41:48.163Z,101418.94
2023-04-15T22:44:53.269Z,101414.50
2023-04-15T22:47:59.736Z,101408.56
2023-04-15T22:51:06.384Z,101416.95
2023-04-15T22:54:11.710Z,101422.77
2023-04-15T22:57:18.321Z,101423.77
2023-04-15T23:00:25.282Z,101421.78
2023-04-15T23:03:31.185Z,101418.59
2023-04-15T23:06:40.769Z,101426.03
2023-04-15T23:09:49.260Z,101421.09
2023-04-15T23:12:56.972Z,101419.48
2023-04-15T23:16:03.791Z,101429.77
2023-04-15T23:19:09.967Z,101423.44
2023-04-15T23:22:17.066Z,101428.76
2023-04-15T23:25:24.243Z,101423.30
2023-04-15T23:28:29.929Z,101430.25
2023-04-15T23:31:38.273Z,101427.67
2023-04-15T23:34:43.517Z,101435.98
2023-04-15T23:37:49.826Z,101445.30
2023-04-15T23:40:56.874Z,101445.44
2023-04-15T23:44:02.683Z,101445.93
2023-04-15T23:47:10.118Z,101450.77
2023-04-15T23:50:15.170Z,101456.62
2023-04-15T23:53:21.737Z,101455.83
2023-04-15T23:56:28.965Z,101455.47
2023-04-15T23:59:34.654Z,101450.64
